createdAt,value
2023-05-02T05:32:58.645Z,10.10
2023-05-02T05:36:09.900Z,10.40
2023-05-02T05:39:12.035Z,10.30
2023-05-02T05:42:13.871Z,10.40
2023-05-02T05:45:19.563Z,10.30
2023-05-02T05:48:22.220Z,10.30
2023-05-02T05:51:27.970Z,10.30
2023-05-02T05:54:29.702Z,10.50
2023-05-02T05:57:32.522Z,10.60
2023-05-02T06:00:38.469Z,10.80
2023-05-02T06:03:41.009Z,11.10
2023-05-02T06:06:43.068Z,11.20
2023-05-02T06:09:45.383Z,11.40
2023-05-02T06:49:23.442Z,11.50
2023-05-02T06:52:25.683Z,12.00
2023-05-02T06:55:29.176Z,12.40
2023-05-02T06:58:32.176Z,12.80
2023-05-02T07:01:34.178Z,13.00
2023-05-02T07:04:37.226Z,13.00
2023-05-02T07:07:40.758Z,13.00
2023-05-02T07:10:45.551Z,12.80
2023-05-02T07:13:48.598Z,12.60
2023-05-02T07:16:50.687Z,12.30
2023-05-02T07:19:52.966Z,12.40
2023-05-02T07:22:54.759Z,12.40
2023-05-02T07:25:57.092Z,12.20
2023-05-02T07:28:59.002Z,12.30
2023-05-02T07:32:01.330Z,12.40
2023-05-02T07:35:04.126Z,12.20
2023-05-02T07:38:06.741Z,12.20
2023-05-02T07:41:11.262Z,12.10
2023-05-02T07:44:14.233Z,12.10
2023-05-02T07:47:19.547Z,12.10
2023-05-02T07:50:23.529Z,12.00
2023-05-02T07:53:25.856Z,12.10
2023-05-02T07:56:28.630Z,12.50
2023-05-02T07:59:32.753Z,12.90
2023-05-02T08:02:36.803Z,12.70
2023-05-02T08:05:39.953Z,13.00
2023-05-02T08:08:43.340Z,13.40
2023-05-02T08:11:45.393Z,14.20
2023-05-02T08:14:47.576Z,14.30
2023-05-02T08:17:49.459Z,15.20
2023-05-02T08:20:51.690Z,15.40
2023-05-02T08:23:58.911Z,15.50
2023-05-02T08:27:03.390Z,14.60
2023-05-02T08:30:07.808Z,14.80
2023-05-02T08:33:12.332Z,15.00
2023-05-02T08:36:21.197Z,15.30
2023-05-02T08:39:24.224Z,15.40
2023-05-02T08:42:28.798Z,16.10
2023-05-02T08:45:41.401Z,16.90
2023-05-02T08:48:45.985Z,16.90
2023-05-02T08:51:51.858Z,16.70
2023-05-02T08:54:56.803Z,17.50
2023-05-02T08:57:59.266Z,18.40
2023-05-02T09:01:05.006Z,17.90
2023-05-02T09:04:08.430Z,17.70
2023-05-02T09:07:11.861Z,17.10
2023-05-02T09:10:15.202Z,16.20
2023-05-02T09:13:35.180Z,16.20
2023-05-02T09:16:40.650Z,16.50
2023-05-02T09:19:43.932Z,17.00
2023-05-02T09:22:50.755Z,16.00
2023-05-02T09:25:53.766Z,15.70
2023-05-02T09:28:56.517Z,15.70
2023-05-02T09:31:59.272Z,15.20
2023-05-02T09:35:08.194Z,15.40
2023-05-02T09:38:21.525Z,15.60
2023-05-02T09:41:26.297Z,16.00
2023-05-02T09:44:38.623Z,18.20
2023-05-02T09:47:43.910Z,18.40
2023-05-02T09:50:49.068Z,17.50
2023-05-02T09:53:56.305Z,17.20
2023-05-02T09:57:00.220Z,16.30
2023-05-02T10:00:03.385Z,15.70
2023-05-02T10:03:09.812Z,16.20
2023-05-02T10:06:15.165Z,16.00
2023-05-02T10:09:21.534Z,16.30
2023-05-02T10:12:30.110Z,16.00
2023-05-02T10:15:36.384Z,16.60
2023-05-02T10:18:58.927Z,17.50
2023-05-02T10:22:04.580Z,19.90
2023-05-02T10:25:09.139Z,21.80
2023-05-02T10:28:16.400Z,23.00
2023-05-02T10:31:30.323Z,22.00
2023-05-02T10:34:35.439Z,21.70
2023-05-02T10:37:48.678Z,20.70
2023-05-02T10:40:59.718Z,18.80
2023-05-02T10:44:07.764Z,18.50
2023-05-02T10:47:27.391Z,18.40
2023-05-02T10:50:47.944Z,18.50
2023-05-02T10:53:50.574Z,18.10
2023-05-02T10:57:11.236Z,19.20
2023-05-02T11:00:22.146Z,19.90
2023-05-02T11:03:57.273Z,20.00
2023-05-02T11:07:02.298Z,19.30
2023-05-02T11:10:20.372Z,18.20
2023-05-02T11:13:50.884Z,17.90
2023-05-02T11:17:01.698Z,17.20
2023-05-02T11:20:07.543Z,16.80
2023-05-02T11:23:15.668Z,17.40
2023-05-02T11:26:26.257Z,17.10
2023-05-02T11:29:52.184Z,17.10
2023-05-02T11:32:55.670Z,17.70
2023-05-02T11:35:58.718Z,17.60
2023-05-02T11:39:02.115Z,17.10
2023-05-02T11:42:03.992Z,16.60
2023-05-02T11:45:06.323Z,16.20
2023-05-02T11:48:09.360Z,16.00
2023-05-02T11:51:11.676Z,15.80
2023-05-02T11:54:21.343Z,16.30
2023-05-02T11:57:23.791Z,16.50
2023-05-02T12:00:28.315Z,16.80
2023-05-02T12:03:32.409Z,17.10
2023-05-02T12:06:35.030Z,17.40
2023-05-02T12:09:49.924Z,17.50
2023-05-02T12:13:04.063Z,17.80
2023-05-02T12:16:07.318Z,17.80
2023-05-02T12:19:09.369Z,17.90
2023-05-02T12:22:13.362Z,17.70
2023-05-02T12:25:15.530Z,18.00
2023-05-02T12:28:24.043Z,17.90
2023-05-02T12:31:28.180Z,18.10
2023-05-02T12:34:34.183Z,17.90
2023-05-02T12:37:35.869Z,18.10
2023-05-02T12:40:38.491Z,18.00
2023-05-02T12:43:49.403Z,17.80
2023-05-02T12:47:01.511Z,18.00
2023-05-02T12:50:03.785Z,18.30
2023-05-02T12:53:06.442Z,18.20
2023-05-02T12:56:08.867Z,18.40
2023-05-02T12:59:29.646Z,18.10
2023-05-02T13:02:32.002Z,18.00
2023-05-02T13:05:35.273Z,17.40
2023-05-02T13:08:37.188Z,17.20
2023-05-02T13:11:39.537Z,17.10
2023-05-02T13:14:41.429Z,16.90
2023-05-02T13:17:43.450Z,16.30
2023-05-02T13:20:45.453Z,16.60
2023-05-02T13:23:50.843Z,16.80
2023-05-02T13:26:52.659Z,16.90
2023-05-02T13:29:54.691Z,16.80
2023-05-02T13:32:58.905Z,16.80
2023-05-02T13:36:00.856Z,16.90
2023-05-02T13:39:02.721Z,17.10
2023-05-02T13:42:06.502Z,17.10
2023-05-02T13:45:08.985Z,17.20
2023-05-02T13:48:11.180Z,17.50
2023-05-02T13:51:13.151Z,17.70
2023-05-02T13:54:15.583Z,17.60
2023-05-02T13:57:17.333Z,17.30
2023-05-02T14:00:19.508Z,17.20
2023-05-02T14:03:21.457Z,17.00
2023-05-02T14:06:23.730Z,16.60
2023-05-02T14:09:25.856Z,16.50
2023-05-02T14:12:28.353Z,16.90
2023-05-02T14:15:30.315Z,17.00
2023-05-02T14:18:32.337Z,17.40
2023-05-02T14:21:34.122Z,17.80
2023-05-02T14:24:35.920Z,18.10
2023-05-02T14:27:37.712Z,17.70
2023-05-02T14:30:39.743Z,17.60
2023-05-02T14:33:41.702Z,17.50
2023-05-02T14:36:43.574Z,17.00
2023-05-02T14:39:46.631Z,17.20
2023-05-02T14:42:50.161Z,17.50
2023-05-02T14:45:52.019Z,17.70
2023-05-02T14:48:53.937Z,17.70
2023-05-02T14:51:57.142Z,17.30
2023-05-02T14:55:01.473Z,17.50
2023-05-02T14:58:03.311Z,17.90
2023-05-02T15:01:05.326Z,17.80
2023-05-02T15:04:08.296Z,17.70
2023-05-02T15:07:11.171Z,17.60
2023-05-02T15:10:12.967Z,17.30
2023-05-02T15:13:14.881Z,17.30
2023-05-02T15:16:16.645Z,17.40
2023-05-02T15:19:18.450Z,17.20
2023-05-02T15:22:20.683Z,17.40
2023-05-02T15:25:22.742Z,17.10
2023-05-02T15:28:25.759Z,17.00
2023-05-02T15:31:28.039Z,16.80
2023-05-02T15:34:29.990Z,16.90
2023-05-02T15:37:32.189Z,16.90
2023-05-02T15:40:33.956Z,16.80
2023-05-02T15:43:36.259Z,16.60
2023-05-02T15:46:39.499Z,16.80
2023-05-02T15:49:41.510Z,16.90
2023-05-02T15:52:43.235Z,16.70
2023-05-02T15:55:46.418Z,16.60
2023-05-02T15:58:48.460Z,16.60
